Vaduz, Liechtenstein

7:42 AM CEST on September 05, 2015 (GMT +0200)
IOBERLAN3 | | Change Station
CLOSE
Current Station
Personal Weather Station
Location: Vaduz, Oberland
Elevation: 1690 ft
Nearby Weather Stations

Elev 1690 ft 47.15 °N, 9.52 °E | Updated 7 minutes ago

Rain
Rain
51.6 °F
Feels Like 51.6 °F
N
0.0
Wind Variable Wind from SW
Gusts 1.0 mph

Today
High -- | Low -- °F
--% Chance of Precip.
Yesterday
High -- | Low -- °F
Precip. -- in
6:45 AM 7:54 PM
Waning Gibbous, 52% visible
Pressure 30.04 in
Visibility 6.2 miles
Clouds Mostly Cloudy 5500 ft
Dew Point 48 °F
Humidity 86%
Rainfall 0.22 in
Snow Depth Not available.
UV 0.0 out of 12
Pollen Not available.
Air Quality Not available.
Flu Activity Not available.
METAR LSZR 050520Z 12004KT 9999 BKN055 12/09 Q1017 NOSIG RMK A
Pressure 30.04 in
Visibility 6.2 miles
Clouds Mostly Cloudy 5500 ft
Dew Point 48 °F
Humidity 86%
Rainfall 0.22 in
Snow Depth Not available.
UV 0.0 out of 12
Pollen Not available.
Air Quality Not available.
Flu Activity Not available.
METAR LSZR 050520Z 12004KT 9999 BKN055 12/09 Q1017 NOSIG RMK A

10-Day Weather Forecast

×

Almanac

Astronomy

Sep. 05, 2015 Rise Set
Actual Time
Civil Twilight
Nautical Twilight
Astronomical Twilight
Moon
Length of Visible Light
Length of Day
Tomorrow will be .
, % of the Moon is Illuminated

Today's Extremes

Country Highs Country Lows

Community

WunderPhotos

Upload Photos

1,852,428 photos uploaded!

WunderBlogs® & News

Nearby

Air Quality

  Air Quality AQ Index Pollutant
Not available.

Snow Depth

Station Depth Elevation

Earthquake Activity

City Distance Mag. Time & Date
Minimum magnitude displayed is 2.5.

Coastal Water Temperatures

Place Temperature

Stations

Nearby Weather Stations

Station Location Temp. Windchill Dew Point Humidity Wind Precip. Elev Updated Type